Time;durP1;ratioP1;P1;durP2;ratioP2;P2;SDS_P1;SDS_P2;PMS_P1;PMS_P2;Temp;Humidity;BMP_temperature;BMP_pressure;BME280_temperature;BME280_humidity;BME280_pressure;Samples;Min_cycle;Max_cycle;Signal;HPM_P1;HPM_P2
2021/11/22 00:15:14;;;;;;;11.22;8.73;;;;;;;8.35;68.72;98770.60;1806680;78;22889;-70
2021/11/22 00:17:42;;;;;;;11.30;8.53;;;;;;;8.31;68.79;98772.25;1739289;82;21071;-71
2021/11/22 00:20:12;;;;;;;12.25;9.18;;;;;;;8.34;68.65;98770.33;1731878;82;21101;-70
2021/11/22 00:22:39;;;;;;;12.85;9.10;;;;;;;8.39;68.62;98779.80;1732084;82;21617;-70
2021/11/22 00:25:07;;;;;;;10.80;8.83;;;;;;;8.37;68.70;98787.39;1731645;82;21047;-71
2021/11/22 00:27:33;;;;;;;12.05;9.25;;;;;;;8.36;68.74;98786.34;1732368;82;21640;-71
2021/11/22 00:30:05;;;;;;;10.68;8.98;;;;;;;8.36;68.71;98784.41;1737122;82;21078;-71
2021/11/22 00:32:36;;;;;;;11.50;8.95;;;;;;;8.43;68.56;98790.91;1744149;82;21486;-70
2021/11/22 00:35:21;;;;;;;11.28;8.83;;;;;;;8.44;68.51;98795.22;1748792;82;21063;-70
2021/11/22 00:37:54;;;;;;;13.18;9.70;;;;;;;8.38;68.61;98800.41;1740446;82;21565;-70
2021/11/22 00:40:17;;;;;;;11.57;8.95;;;;;;;8.35;68.67;98796.36;1741203;82;21055;-70
2021/11/22 00:42:46;;;;;;;11.40;8.53;;;;;;;8.34;68.69;98793.38;1726008;82;21102;-71
2021/11/22 00:45:13;;;;;;;11.28;8.35;;;;;;;8.40;68.55;98798.22;1732385;82;21573;-70
2021/11/22 00:47:40;;;;;;;10.13;8.03;;;;;;;8.41;68.40;98799.30;1737011;82;21532;-70
2021/11/22 00:50:07;;;;;;;10.55;8.50;;;;;;;8.39;68.40;98798.79;1735464;82;21562;-70
2021/11/22 00:52:34;;;;;;;11.40;8.53;;;;;;;8.35;68.43;98799.62;1724936;82;21034;-70
2021/11/22 00:55:00;;;;;;;10.38;7.97;;;;;;;8.31;68.48;98799.37;1736633;82;21063;-71
2021/11/22 00:57:27;;;;;;;9.95;7.50;;;;;;;8.33;68.43;98803.14;1717682;82;21051;-71
2021/11/22 00:59:54;;;;;;;10.82;7.47;;;;;;;8.37;68.28;98805.56;1729079;82;21145;-71
2021/11/22 01:02:22;;;;;;;;;;;;;;;8.37;68.21;98806.38;1744201;82;20979;-71
2021/11/22 01:04:49;;;;;;;11.05;7.97;;;;;;;8.32;68.30;98813.74;1752990;82;20138;-70
2021/11/22 01:07:16;;;;;;;11.30;8.03;;;;;;;8.20;68.60;98822.70;1724674;82;21066;-71
2021/11/22 01:09:42;;;;;;;;;;;;;;;8.15;68.78;98822.74;1726002;82;21050;-71
2021/11/22 01:12:09;;;;;;;9.88;7.12;;;;;;;8.16;68.81;98821.09;1725288;82;20455;-71
2021/11/22 01:14:36;;;;;;;10.25;8.03;;;;;;;8.14;68.88;98823.28;1694887;83;21105;-70
2021/11/22 01:17:04;;;;;;;11.97;8.73;;;;;;;8.13;68.95;98816.23;1696358;84;21089;-70
2021/11/22 01:19:31;;;;;;;11.93;7.75;;;;;;;8.09;69.06;98815.16;1726070;83;21058;-70
2021/11/22 01:22:01;;;;;;;11.08;7.95;;;;;;;8.06;69.19;98821.68;1682090;84;21569;-71
2021/11/22 01:24:27;;;;;;;10.55;7.37;;;;;;;8.04;69.27;98819.80;1680650;84;21094;-70
2021/11/22 01:26:54;;;;;;;9.75;7.10;;;;;;;8.05;69.22;98814.09;1724846;83;21145;-70
2021/11/22 01:29:20;;;;;;;10.05;7.70;;;;;;;8.07;69.16;98816.00;1686205;85;21141;-71
2021/11/22 01:31:47;;;;;;;11.63;7.97;;;;;;;8.05;69.23;98822.77;1695572;84;21528;-71
2021/11/22 01:34:14;;;;;;;;;;;;;;;7.99;69.39;98814.66;1708821;83;21661;-71
2021/11/22 01:44:13;;;;;;;10.65;7.70;;;;;;;7.98;69.71;98824.41;1818376;78;23501;-71
2021/11/22 01:46:39;;;;;;;11.30;7.83;;;;;;;7.90;69.85;98830.43;1756450;80;21089;-72
2021/11/22 01:49:06;;;;;;;9.78;7.75;;;;;;;7.86;69.99;98831.52;1753415;81;21089;-72
2021/11/22 01:51:32;;;;;;;10.48;7.35;;;;;;;7.83;70.06;98823.92;1761250;80;21043;-72
2021/11/22 01:53:59;;;;;;;;;;;;;;;7.84;70.08;98830.16;1764975;81;20982;-71
2021/11/22 01:56:26;;;;;;;9.65;7.33;;;;;;;7.90;69.99;98829.08;1761166;80;20128;-72
2021/11/22 01:58:52;;;;;;;9.85;7.28;;;;;;;7.90;69.97;98825.01;1761351;81;21073;-72
2021/11/22 02:01:19;;;;;;;9.93;7.70;;;;;;;7.88;69.95;98823.09;1761360;80;21051;-72
2021/11/22 02:03:45;;;;;;;11.33;8.03;;;;;;;7.84;70.00;98821.48;1762218;81;21041;-72
2021/11/22 02:06:12;;;;;;;9.13;7.37;;;;;;;7.79;70.12;98830.19;1761094;80;21081;-72
2021/11/22 02:08:39;;;;;;;11.38;8.10;;;;;;;7.78;70.21;98831.27;1761645;81;21010;-72
2021/11/22 02:11:05;;;;;;;10.63;7.03;;;;;;;7.78;70.21;98831.27;1747088;81;21077;-72
2021/11/22 02:13:32;;;;;;;10.15;7.37;;;;;;;7.82;70.12;98825.56;1761557;81;21081;-72
2021/11/22 02:15:58;;;;;;;;;;;;;;;7.86;70.02;98822.58;1763882;80;21479;-72
2021/11/22 02:18:25;;;;;;;8.80;7.00;;;;;;;7.89;69.95;98827.44;1754170;81;20110;-72
2021/11/22 02:20:52;;;;;;;;;;;;;;;7.80;70.12;98833.95;1756797;80;21646;-72
2021/11/22 02:23:18;;;;;;;8.88;6.72;;;;;;;7.77;70.14;98835.05;1749300;81;20405;-71
2021/11/22 02:25:45;;;;;;;9.53;7.15;;;;;;;7.68;70.25;98835.36;1743970;81;21656;-72
2021/11/22 02:28:13;;;;;;;9.40;7.08;;;;;;;7.65;70.19;98835.91;1760370;81;21053;-71
2021/11/22 02:30:43;;;;;;;9.78;7.00;;;;;;;7.63;70.11;98836.17;1760102;80;21085;-72
2021/11/22 02:33:18;;;;;;;11.60;7.30;;;;;;;7.61;70.21;98838.36;1760573;81;21070;-72
2021/11/22 02:35:49;;;;;;;11.75;7.83;;;;;;;7.51;70.33;98842.41;1760458;80;21078;-72
2021/11/22 02:38:18;;;;;;;14.60;9.13;;;;;;;7.39;70.54;98839.20;1734390;81;21127;-71
2021/11/22 02:40:45;;;;;;;14.10;8.73;;;;;;;7.31;70.73;98844.61;1759463;80;21022;-72
2021/11/22 02:43:11;;;;;;;16.12;9.18;;;;;;;7.28;70.80;98844.34;1756293;81;21054;-72
2021/11/22 02:45:38;;;;;;;15.58;9.70;;;;;;;7.26;70.94;98850.02;1754396;80;21048;-72
2021/11/22 02:48:04;;;;;;;16.55;10.08;;;;;;;7.22;71.19;98846.26;1756390;81;21354;-72
2021/11/22 02:50:31;;;;;;;16.57;10.53;;;;;;;7.17;71.58;98850.84;1756132;80;21043;-72
2021/11/22 02:52:57;;;;;;;18.20;10.82;;;;;;;7.12;71.84;98848.94;1756528;82;21081;-72
2021/11/22 02:55:23;;;;;;;14.83;10.23;;;;;;;7.15;71.96;98853.84;1755330;80;21069;-72
2021/11/22 02:57:50;;;;;;;14.60;9.38;;;;;;;7.20;71.95;98853.81;1755680;82;21105;-72
2021/11/22 03:00:22;;;;;;;14.23;9.28;;;;;;;7.26;71.95;98856.00;1756003;81;21018;-73
2021/11/22 03:02:48;;;;;;;13.58;9.23;;;;;;;7.24;72.01;98860.86;1740775;81;21557;-72
2021/11/22 03:05:14;;;;;;;;;;;;;;;7.18;72.20;98856.53;1758368;81;21053;-72
2021/11/22 03:07:43;;;;;;;14.50;8.93;;;;;;;7.18;72.23;98860.05;1755493;82;20104;-72
2021/11/22 03:10:12;;;;;;;12.53;8.43;;;;;;;7.19;72.22;98863.58;1755631;80;21114;-73
2021/11/22 03:12:40;;;;;;;10.53;8.20;;;;;;;7.22;72.20;98863.03;1725705;82;21618;-72
2021/11/22 03:15:10;;;;;;;10.82;8.23;;;;;;;7.24;72.28;98865.73;1756050;80;21541;-72
2021/11/22 03:17:37;;;;;;;11.65;8.23;;;;;;;7.25;72.45;98870.61;1755739;81;21011;-72
2021/11/22 03:20:05;;;;;;;12.37;8.38;;;;;;;7.22;72.59;98876.57;1756290;80;21047;-72
2021/11/22 03:22:32;;;;;;;12.00;8.23;;;;;;;7.27;72.53;98877.37;1748102;81;21033;-72
2021/11/22 03:24:59;;;;;;;11.18;7.72;;;;;;;7.33;72.38;98880.34;1752896;81;21038;-72
2021/11/22 03:27:26;;;;;;;;;;;;;;;7.40;72.22;98885.50;1758535;81;21012;-72
2021/11/22 03:29:53;;;;;;;11.45;8.70;;;;;;;7.41;72.10;98885.22;1755600;80;20115;-73
2021/11/22 03:32:19;;;;;;;10.82;8.00;;;;;;;7.33;72.36;98884.97;1756126;81;21014;-72
2021/11/22 03:34:46;;;;;;;11.78;8.48;;;;;;;7.29;72.48;98883.88;1755700;80;21043;-72
2021/11/22 03:37:15;;;;;;;12.10;8.45;;;;;;;7.27;72.57;98897.67;1756686;81;21027;-72
2021/11/22 03:39:46;;;;;;;9.00;7.22;;;;;;;7.29;72.61;98902.30;1755812;81;20983;-72
2021/11/22 03:42:14;;;;;;;10.35;8.33;;;;;;;7.37;72.52;98899.56;1754905;82;20979;-72
2021/11/22 03:44:40;;;;;;;10.13;8.05;;;;;;;7.43;72.43;98906.08;1744841;81;21056;-72
2021/11/22 03:47:07;;;;;;;8.95;7.72;;;;;;;7.46;72.38;98912.30;1738704;82;21054;-72
2021/11/22 03:49:34;;;;;;;9.75;8.00;;;;;;;7.46;72.41;98907.42;1753086;81;21042;-72
2021/11/22 03:52:03;;;;;;;10.10;6.62;;;;;;;7.43;72.49;98918.80;1737153;82;21030;-72
2021/11/22 03:54:30;;;;;;;6.45;4.60;;;;;;;7.44;72.39;98923.11;1752223;80;21613;-72
2021/11/22 03:56:56;;;;;;;5.45;4.20;;;;;;;7.54;71.92;98920.97;1748579;82;21609;-72
2021/11/22 03:59:22;;;;;;;;;;;;;;;7.57;71.33;98927.20;1753511;80;21549;-72
2021/11/22 04:01:49;;;;;;;6.20;3.67;;;;;;;7.55;70.85;98930.70;1753220;82;20121;-72
2021/11/22 04:04:16;;;;;;;5.75;3.80;;;;;;;7.45;70.51;98936.94;1744168;82;21645;-72
2021/11/22 04:06:42;;;;;;;4.90;3.05;;;;;;;7.42;70.20;98936.13;1751635;82;21023;-72
2021/11/22 04:09:08;;;;;;;;;;;;;;;7.47;69.67;98943.70;1755761;82;21018;-72
2021/11/22 04:11:35;;;;;;;4.92;2.70;;;;;;;7.51;69.42;98948.03;1753333;80;20130;-72
2021/11/22 04:14:03;;;;;;;4.67;2.67;;;;;;;7.43;69.35;98958.06;1740562;82;21439;-73
2021/11/22 04:16:32;;;;;;;4.25;2.50;;;;;;;7.41;69.03;98950.73;1752734;81;21059;-73
2021/11/22 04:18:58;;;;;;;3.72;2.30;;;;;;;7.38;69.04;98957.52;1751768;81;21034;-73
2021/11/22 04:21:25;;;;;;;3.62;2.20;;;;;;;7.45;68.86;98966.72;1750397;81;21507;-73
2021/11/22 04:23:55;;;;;;;4.97;2.80;;;;;;;7.53;68.72;98966.19;1730548;82;21088;-73
2021/11/22 04:29:11;;;;;;;4.67;2.65;;;;;;;7.51;68.69;98966.45;1812060;79;23505;-70
2021/11/22 04:31:38;;;;;;;4.10;2.77;;;;;;;7.43;68.83;98978.38;1758708;80;21044;-70
2021/11/22 04:34:04;;;;;;;4.30;2.45;;;;;;;7.35;68.95;98983.78;1735938;81;21084;-69
2021/11/22 04:36:31;;;;;;;4.15;2.33;;;;;;;7.37;68.97;98977.54;1753368;81;21632;-70
2021/11/22 04:38:58;;;;;;;4.08;2.67;;;;;;;7.39;68.89;98976.75;1747013;81;21066;-72
2021/11/22 04:41:25;;;;;;;3.50;2.12;;;;;;;7.35;68.91;98984.31;1752276;81;21058;-71
2021/11/22 04:43:53;;;;;;;;;;;;;;;7.29;68.88;98979.98;1740819;81;21085;-71
2021/11/22 04:46:20;;;;;;;2.98;1.90;;;;;;;7.25;68.89;98986.48;1740218;81;20443;-70
2021/11/22 04:48:47;;;;;;;2.75;1.75;;;;;;;7.14;68.99;98995.66;1758411;81;22581;-70
2021/11/22 04:51:13;;;;;;;;;;;;;;;7.18;68.79;98988.63;1753033;81;21517;-70
2021/11/22 04:53:40;;;;;;;3.85;1.92;;;;;;;7.23;68.46;98991.33;1749324;81;20414;-71
2021/11/22 04:56:07;;;;;;;3.35;1.80;;;;;;;7.15;68.60;99008.66;1746576;81;21086;-72
2021/11/22 04:58:33;;;;;;;3.22;1.72;;;;;;;7.12;68.61;99008.63;1740266;81;21544;-72
2021/11/22 05:01:00;;;;;;;;;;;;;;;7.10;68.61;99013.50;1736288;81;21102;-72
2021/11/22 05:03:26;;;;;;;3.27;1.67;;;;;;;7.16;68.45;99012.42;1733753;81;20120;-72
2021/11/22 05:05:53;;;;;;;3.12;1.90;;;;;;;7.20;68.20;99023.53;1733386;81;21516;-72
2021/11/22 05:08:20;;;;;;;3.08;1.70;;;;;;;7.15;68.27;99024.36;1754877;81;21034;-72
2021/11/22 05:10:46;;;;;;;;;;;;;;;7.11;68.31;99031.38;1737507;81;21084;-72
2021/11/22 05:13:16;;;;;;;3.40;1.72;;;;;;;7.07;68.39;99034.88;1734097;81;20144;-72
2021/11/22 05:15:43;;;;;;;3.40;1.75;;;;;;;6.96;68.63;99044.31;1733927;81;21597;-72
2021/11/22 05:18:10;;;;;;;;;;;;;;;7.01;68.72;99044.88;1744138;81;21061;-72
2021/11/22 05:20:37;;;;;;;2.97;1.57;;;;;;;7.09;68.50;99052.47;1763583;81;20133;-72
2021/11/22 05:23:03;;;;;;;4.60;2.15;;;;;;;6.99;68.77;99055.95;1761567;81;21026;-72
2021/11/22 05:25:30;;;;;;;3.62;2.10;;;;;;;6.92;68.95;99058.09;1744552;81;21549;-73
2021/11/22 05:27:58;;;;;;;3.47;1.92;;;;;;;6.87;69.09;99059.97;1765031;81;21028;-72
2021/11/22 05:30:30;;;;;;;;;;;;;;;6.84;69.26;99072.65;1766645;81;21075;-73
2021/11/22 05:32:56;;;;;;;2.92;1.90;;;;;;;6.84;69.32;99066.70;1764810;81;20105;-72
2021/11/22 05:35:24;;;;;;;3.10;1.70;;;;;;;6.84;69.40;99072.65;1749270;81;21067;-73
2021/11/22 05:37:51;;;;;;;3.20;1.62;;;;;;;6.83;69.43;99081.86;1738588;81;21027;-72
2021/11/22 05:40:17;;;;;;;;;;;;;;;6.79;69.58;99077.52;1762274;81;21562;-73
2021/11/22 05:42:44;;;;;;;3.17;1.82;;;;;;;6.73;69.77;99075.84;1744750;81;20121;-71
2021/11/22 05:45:10;;;;;;;;;;;;;;;6.67;69.97;99080.14;1743152;81;21068;-72
2021/11/22 05:47:37;;;;;;;2.60;1.60;;;;;;;6.68;69.91;99086.66;1764372;81;20113;-72
2021/11/22 05:50:06;;;;;;;3.87;1.52;;;;;;;6.65;69.97;99091.77;1766563;81;21043;-73
2021/11/22 05:52:38;;;;;;;2.52;1.70;;;;;;;6.59;70.10;99090.12;1758534;80;21079;-72
2021/11/22 05:55:11;;;;;;;4.47;1.70;;;;;;;6.54;70.21;99097.66;1762133;81;21047;-72
2021/11/22 05:57:37;;;;;;;2.98;1.50;;;;;;;6.53;70.25;99106.83;1764041;81;21024;-73
2021/11/22 06:00:05;;;;;;;3.02;2.00;;;;;;;6.57;70.10;99111.19;1746706;81;21075;-73
2021/11/22 06:02:34;;;;;;;3.37;1.70;;;;;;;6.56;69.95;99121.18;1758459;81;21026;-72
2021/11/22 06:05:01;;;;;;;4.85;1.98;;;;;;;6.54;69.98;99115.77;1740074;81;21079;-75
2021/11/22 06:07:27;;;;;;;3.37;1.85;;;;;;;6.52;70.08;99126.04;1741854;81;21045;-73
2021/11/22 06:09:54;;;;;;;;;;;;;;;6.56;70.01;99127.94;1769068;81;21051;-72
2021/11/22 06:12:20;;;;;;;3.33;1.57;;;;;;;6.60;69.87;99124.17;1757958;81;20414;-71
2021/11/22 06:14:47;;;;;;;4.35;1.72;;;;;;;6.53;69.96;99128.47;1747482;81;20996;-72
2021/11/22 06:17:13;;;;;;;;;;;;;;;6.49;70.10;99136.81;1744820;81;21502;-73
2021/11/22 06:19:41;;;;;;;2.92;1.70;;;;;;;6.49;70.08;99136.81;1739828;81;20172;-73
2021/11/22 06:22:07;;;;;;;3.15;1.32;;;;;;;6.52;69.92;99147.11;1755589;80;21032;-73
2021/11/22 06:24:34;;;;;;;2.30;1.35;;;;;;;6.62;69.85;99150.44;1736120;82;21613;-73
2021/11/22 06:27:03;;;;;;;2.33;1.27;;;;;;;6.73;69.46;99142.68;1741733;81;21079;-73
2021/11/22 06:29:29;;;;;;;1.55;1.10;;;;;;;6.77;68.76;99143.22;1747642;82;21066;-75
2021/11/22 06:31:57;;;;;;;2.40;0.95;;;;;;;6.76;67.88;99147.03;1749751;82;21122;-75
2021/11/22 06:34:23;;;;;;;;;;;;;;;6.74;67.44;99145.64;1752790;82;21011;-75
2021/11/22 06:36:49;;;;;;;2.60;0.80;;;;;;;6.71;66.90;99148.87;1750060;82;20119;-75
2021/11/22 06:39:16;;;;;;;;;;;;;;;6.63;66.96;99150.16;1752709;82;21082;-75
2021/11/22 06:41:42;;;;;;;0.82;0.50;;;;;;;6.75;66.57;99151.34;1750030;82;20134;-75
2021/11/22 06:44:09;;;;;;;1.98;0.70;;;;;;;6.75;66.23;99155.39;1750221;82;21047;-75
2021/11/22 06:46:35;;;;;;;2.02;0.70;;;;;;;6.74;66.13;99159.98;1750163;82;21149;-74
2021/11/22 06:49:02;;;;;;;1.40;0.68;;;;;;;6.74;65.96;99166.74;1749935;82;21051;-75
2021/11/22 06:54:23;;;;;;;0.72;0.40;;;;;;;6.81;65.47;99167.86;1801686;79;22981;-67
2021/11/22 06:56:50;;;;;;;1.27;0.40;;;;;;;6.81;65.17;99176.80;1753450;82;21023;-67
2021/11/22 06:59:16;;;;;;;0.80;0.40;;;;;;;6.86;64.98;99180.91;1753058;82;21070;-67
2021/11/22 07:01:43;;;;;;;;;;;;;;;6.89;65.00;99181.73;1755606;82;21070;-67
2021/11/22 07:04:09;;;;;;;1.12;0.40;;;;;;;6.89;64.68;99185.79;1751678;82;20142;-67
2021/11/22 07:06:36;;;;;;;3.27;0.70;;;;;;;6.82;64.75;99191.97;1752798;82;21007;-67
2021/11/22 07:09:03;;;;;;;1.70;0.50;;;;;;;6.84;64.68;99191.69;1753234;82;21015;-67
2021/11/22 07:11:30;;;;;;;0.55;0.30;;;;;;;6.89;64.02;99197.14;1753417;82;21083;-67
2021/11/22 07:13:57;;;;;;;2.37;0.30;;;;;;;6.92;63.97;99199.33;1746476;82;21063;-66
2021/11/22 07:16:23;;;;;;;0.57;0.40;;;;;;;6.99;63.58;99202.08;1737489;82;21592;-67
2021/11/22 07:18:50;;;;;;;0.93;0.57;;;;;;;6.95;63.02;99200.97;1723760;82;21085;-66
2021/11/22 07:21:17;;;;;;;1.50;0.42;;;;;;;6.88;63.06;99203.09;1723176;83;21059;-67
2021/11/22 07:23:44;;;;;;;0.70;0.40;;;;;;;6.86;63.26;99209.84;1745730;82;21250;-67
2021/11/22 07:26:10;;;;;;;;;;;;;;;6.83;63.42;99209.84;1746756;82;21062;-67
2021/11/22 07:28:37;;;;;;;1.57;0.50;;;;;;;6.84;63.31;99216.03;1748947;80;20089;-67
2021/11/22 07:31:03;;;;;;;0.88;0.50;;;;;;;6.74;63.67;99215.97;1765782;80;21082;-67
2021/11/22 07:33:30;;;;;;;0.80;0.40;;;;;;;6.77;63.47;99224.91;1736736;82;21070;-67
2021/11/22 07:35:57;;;;;;;;;;;;;;;6.79;63.46;99222.78;1753392;82;21019;-67
2021/11/22 07:38:23;;;;;;;1.30;0.60;;;;;;;6.79;63.34;99228.19;1745281;81;20105;-67
2021/11/22 07:40:51;;;;;;;1.77;0.50;;;;;;;6.70;63.34;99229.20;1723029;83;21086;-67
2021/11/22 07:43:17;;;;;;;1.77;0.60;;;;;;;6.70;63.43;99232.44;1724888;82;21082;-67
2021/11/22 07:45:44;;;;;;;1.55;0.80;;;;;;;6.73;63.41;99237.35;1748512;82;21083;-67
2021/11/22 07:48:12;;;;;;;0.62;0.40;;;;;;;6.74;63.57;99237.08;1744796;82;21062;-67
2021/11/22 07:50:38;;;;;;;1.32;0.53;;;;;;;6.82;63.20;99237.14;1730602;82;21595;-68
2021/11/22 07:53:05;;;;;;;3.27;0.40;;;;;;;6.89;63.07;99230.44;1720376;82;21082;-67
2021/11/22 07:55:32;;;;;;;1.02;0.50;;;;;;;6.91;62.77;99239.09;1739963;82;21090;-67
2021/11/22 07:57:58;;;;;;;;;;;;;;;6.90;62.67;99248.31;1737659;82;21027;-67
2021/11/22 08:00:26;;;;;;;0.90;0.40;;;;;;;6.91;62.90;99256.68;1722022;82;20121;-67
2021/11/22 08:02:52;;;;;;;2.58;0.50;;;;;;;6.88;63.09;99260.44;1707125;82;21041;-67
2021/11/22 08:05:20;;;;;;;1.15;0.60;;;;;;;6.89;62.73;99262.91;1723188;82;21090;-67
2021/11/22 08:07:47;;;;;;;2.42;0.70;;;;;;;6.88;62.76;99261.80;1721894;82;21545;-67
2021/11/22 08:12:56;;;;;;;1.22;0.50;;;;;;;6.93;62.42;99275.38;1736318;82;21594;-69
2021/11/22 08:15:23;;;;;;;1.22;0.50;;;;;;;6.95;62.50;99274.03;1729673;82;21071;-68
2021/11/22 08:17:50;;;;;;;1.52;0.50;;;;;;;6.95;62.14;99276.74;1723598;82;21032;-68
2021/11/22 08:20:18;;;;;;;1.62;0.60;;;;;;;6.94;62.16;99284.57;1675557;85;21105;-69
2021/11/22 08:22:45;;;;;;;1.55;0.70;;;;;;;6.95;62.08;99279.45;1700892;84;21046;-68
2021/11/22 08:25:12;;;;;;;1.40;0.55;;;;;;;6.98;62.06;99278.10;1703926;84;21034;-68
2021/11/22 08:27:40;;;;;;;1.45;0.60;;;;;;;6.98;61.95;99287.05;1697665;84;20991;-68
2021/11/22 08:30:10;;;;;;;1.37;0.55;;;;;;;6.99;61.75;99287.86;1691975;83;21137;-68
2021/11/22 08:32:37;;;;;;;1.42;0.50;;;;;;;6.96;61.78;99287.85;1693246;84;20987;-66
2021/11/22 08:35:04;;;;;;;0.98;0.57;;;;;;;6.95;61.79;99288.09;1675971;85;21070;-66
2021/11/22 08:37:31;;;;;;;2.52;0.55;;;;;;;6.98;61.66;99286.22;1684780;84;21529;-67
2021/11/22 08:39:58;;;;;;;1.15;0.42;;;;;;;7.01;61.82;99289.23;1689590;84;21110;-67
2021/11/22 08:42:24;;;;;;;1.55;0.60;;;;;;;7.04;61.89;99291.16;1671335;84;21039;-68
2021/11/22 08:44:52;;;;;;;2.75;0.60;;;;;;;7.08;61.51;99297.69;1672448;84;21051;-67
2021/11/22 08:47:19;;;;;;;1.52;0.47;;;;;;;7.01;61.25;99312.23;1675695;84;21035;-68
2021/11/22 08:49:45;;;;;;;1.62;0.70;;;;;;;6.94;61.39;99320.31;1699118;84;21079;-67
2021/11/22 08:52:11;;;;;;;1.70;0.60;;;;;;;6.89;61.54;99315.66;1687481;84;21070;-68
2021/11/22 08:54:38;;;;;;;;;;;;;;;6.89;61.61;99320.26;1696642;83;21066;-66
2021/11/22 08:57:07;;;;;;;2.02;0.68;;;;;;;6.89;61.65;99324.31;1692316;84;20479;-67
2021/11/22 08:59:36;;;;;;;1.22;0.55;;;;;;;6.83;61.81;99325.35;1726671;82;21019;-68
2021/11/22 09:02:03;;;;;;;1.02;0.57;;;;;;;6.90;61.93;99327.31;1734817;82;21036;-68
2021/11/22 09:04:30;;;;;;;1.35;0.60;;;;;;;7.07;61.64;99327.17;1729875;82;21041;-67
2021/11/22 09:06:57;;;;;;;2.52;1.00;;;;;;;7.12;61.18;99319.10;1730279;82;21368;-67
2021/11/22 09:09:24;;;;;;;1.75;0.75;;;;;;;7.14;61.51;99331.83;1723008;82;21066;-67
2021/11/22 09:11:50;;;;;;;1.60;0.72;;;;;;;7.24;61.30;99318.36;1723931;82;20994;-67
2021/11/22 09:14:17;;;;;;;1.70;0.90;;;;;;;7.31;60.94;99322.48;1729827;82;21068;-67
2021/11/22 09:16:43;;;;;;;1.40;0.70;;;;;;;7.34;60.69;99321.95;1738055;82;21023;-67
2021/11/22 09:19:10;;;;;;;1.92;0.95;;;;;;;7.34;60.29;99326.55;1745045;82;21072;-67
2021/11/22 09:21:38;;;;;;;;;;;;;;;7.30;60.36;99330.31;1749815;82;21099;-67
2021/11/22 09:24:05;;;;;;;1.98;1.10;;;;;;;7.30;60.44;99327.61;1747391;82;20114;-67
2021/11/22 09:26:31;;;;;;;3.52;1.20;;;;;;;7.26;60.61;99325.70;1746302;82;21039;-67
2021/11/22 09:28:58;;;;;;;3.10;1.20;;;;;;;7.29;60.63;99331.41;1711923;84;21098;-67
2021/11/22 09:31:25;;;;;;;2.47;1.40;;;;;;;7.34;60.51;99330.61;1692949;84;21096;-69
2021/11/22 09:33:53;;;;;;;;;;;;;;;7.32;60.19;99324.66;1684450;84;21023;-68
2021/11/22 09:36:21;;;;;;;1.80;1.02;;;;;;;7.26;60.12;99329.77;1670948;84;20391;-68
2021/11/22 09:38:49;;;;;;;2.08;0.90;;;;;;;7.12;60.36;99329.93;1682523;84;21083;-68
2021/11/22 09:41:15;;;;;;;2.52;1.02;;;;;;;7.08;60.50;99332.34;1698958;84;21129;-68
2021/11/22 09:43:44;;;;;;;3.90;1.45;;;;;;;7.07;60.98;99335.28;1692705;84;21050;-67
2021/11/22 09:46:12;;;;;;;3.10;1.42;;;;;;;7.14;60.72;99334.00;1681701;84;21566;-67
2021/11/22 09:48:39;;;;;;;3.52;1.40;;;;;;;7.19;60.51;99330.52;1671815;84;21617;-67
2021/11/22 09:51:07;;;;;;;2.08;1.05;;;;;;;7.16;60.60;99338.60;1674314;84;21737;-67
2021/11/22 09:53:34;;;;;;;2.83;1.17;;;;;;;7.08;60.51;99328.28;1695709;84;21033;-68
2021/11/22 09:56:01;;;;;;;3.90;1.35;;;;;;;7.00;60.48;99334.98;1703835;83;21141;-68
2021/11/22 09:58:27;;;;;;;2.05;1.00;;;;;;;6.92;60.67;99328.67;1676481;85;21111;-68
2021/11/22 10:00:56;;;;;;;3.72;1.37;;;;;;;6.92;60.79;99337.33;1661411;85;21061;-67
2021/11/22 10:03:24;;;;;;;1.90;0.78;;;;;;;6.92;60.43;99335.97;1680044;85;21057;-68
2021/11/22 10:05:58;;;;;;;2.87;0.88;;;;;;;6.88;59.99;99334.31;1673423;85;21537;-67
2021/11/22 10:08:25;;;;;;;1.70;0.75;;;;;;;6.88;59.88;99339.73;1685964;85;21014;-67
2021/11/22 10:10:57;;;;;;;2.35;1.15;;;;;;;6.99;59.48;99334.69;1697387;84;21555;-67
2021/11/22 10:13:34;;;;;;;1.75;0.60;;;;;;;7.13;59.09;99340.48;1679543;85;21519;-69
2021/11/22 10:16:15;;;;;;;0.80;0.40;;;;;;;7.31;58.36;99329.78;1666239;85;21551;-68
2021/11/22 10:18:44;;;;;;;0.55;0.25;;;;;;;7.57;57.95;99328.06;1648516;86;21073;-68
2021/11/22 10:21:16;;;;;;;1.50;0.60;;;;;;;7.90;56.74;99329.06;1684082;83;21021;-69
2021/11/22 10:23:43;;;;;;;0.62;0.40;;;;;;;8.12;55.25;99337.81;1714034;84;21066;-69
2021/11/22 10:26:13;;;;;;;0.72;0.30;;;;;;;8.23;54.41;99339.48;1720221;83;21550;-68
2021/11/22 10:28:42;;;;;;;0.85;0.30;;;;;;;8.34;53.95;99333.59;1646393;87;21066;-69
2021/11/22 10:31:12;;;;;;;1.57;0.30;;;;;;;8.56;53.70;99330.66;1673548;84;21146;-68
2021/11/22 10:33:40;;;;;;;2.95;0.42;;;;;;;8.71;52.52;99335.59;1646472;87;21048;-69
2021/11/22 10:36:11;;;;;;;1.67;0.65;;;;;;;8.71;52.38;99330.70;1680246;84;21072;-68
2021/11/22 10:38:41;;;;;;;0.70;0.50;;;;;;;8.79;51.97;99328.25;1704946;84;21029;-69
2021/11/22 10:41:12;;;;;;;1.15;0.53;;;;;;;8.81;51.57;99327.45;1705054;84;21073;-69
2021/11/22 10:43:51;;;;;;;1.60;0.50;;;;;;;8.92;51.83;99323.67;1702249;84;21115;-68
2021/11/22 10:46:33;;;;;;;1.25;0.60;;;;;;;9.06;51.37;99327.19;1687363;84;21025;-66
2021/11/22 10:49:40;;;;;;;0.95;0.50;;;;;;;9.12;50.79;99326.09;1672543;84;21051;-67
2021/11/22 10:52:25;;;;;;;1.00;0.50;;;;;;;9.02;50.76;99324.20;1672397;84;20991;-66
2021/11/22 10:54:58;;;;;;;1.52;0.62;;;;;;;9.09;51.44;99315.24;1680263;83;21071;-67
2021/11/22 10:57:37;;;;;;;1.95;0.80;;;;;;;9.35;51.14;99329.05;1683285;84;21394;-67
2021/11/22 11:00:24;;;;;;;1.42;0.70;;;;;;;9.37;50.31;99325.54;1698888;84;21060;-68
2021/11/22 11:02:56;;;;;;;1.57;0.60;;;;;;;9.39;50.61;99322.53;1679175;84;21086;-68
2021/11/22 11:05:31;;;;;;;1.60;0.70;;;;;;;9.41;50.70;99324.45;1675082;84;21059;-68
2021/11/22 11:08:09;;;;;;;1.62;0.85;;;;;;;9.35;49.90;99329.63;1677786;84;21071;-67
2021/11/22 11:10:36;;;;;;;2.55;0.75;;;;;;;9.03;50.05;99337.23;1692133;84;21039;-68
2021/11/22 11:13:03;;;;;;;1.32;0.70;;;;;;;8.71;50.42;99338.84;1694131;84;21494;-68
2021/11/22 11:15:32;;;;;;;1.22;0.70;;;;;;;8.42;51.06;99338.50;1699011;84;21098;-67
2021/11/22 11:18:00;;;;;;;1.80;1.20;;;;;;;8.20;51.53;99341.91;1640777;87;21027;-68
2021/11/22 11:20:28;;;;;;;5.15;2.30;;;;;;;8.03;52.10;99343.48;1639421;86;21138;-68
2021/11/22 11:22:55;;;;;;;2.47;1.20;;;;;;;7.91;52.58;99337.45;1653397;86;21043;-67
2021/11/22 11:25:23;;;;;;;;;;;;;;;7.98;53.60;99336.13;1640345;87;21086;-68
2021/11/22 11:27:49;;;;;;;4.08;1.20;;;;;;;8.19;53.19;99326.18;1656492;86;20140;-67
2021/11/22 11:30:19;;;;;;;1.85;0.90;;;;;;;8.19;52.29;99329.43;1652367;86;21530;-68
2021/11/22 11:32:47;;;;;;;1.90;0.90;;;;;;;8.12;52.15;99337.81;1677953;84;20999;-68
2021/11/22 11:35:18;;;;;;;1.40;0.80;;;;;;;8.09;52.36;99343.77;1673335;86;21086;-68
2021/11/22 11:38:20;;;;;;;1.52;0.70;;;;;;;8.00;52.50;99334.53;1683396;84;21539;-68
2021/11/22 11:41:12;;;;;;;2.27;0.85;;;;;;;7.91;52.58;99338.27;1584881;89;21645;-68
2021/11/22 11:43:54;;;;;;;1.20;0.53;;;;;;;7.76;52.90;99339.54;1686550;84;21031;-69
2021/11/22 11:46:53;;;;;;;1.30;0.72;;;;;;;7.61;53.11;99348.95;1691180;84;21138;-68
2021/11/22 11:49:23;;;;;;;0.93;0.50;;;;;;;7.47;53.16;99343.16;1680880;84;21004;-68
2021/11/22 11:51:50;;;;;;;1.12;0.60;;;;;;;7.36;53.48;99340.13;1646068;86;21050;-68
2021/11/22 11:54:20;;;;;;;2.17;1.00;;;;;;;7.32;53.89;99342.25;1673652;85;21086;-68
2021/11/22 11:56:57;;;;;;;2.22;1.22;;;;;;;7.29;54.00;99347.66;1671038;85;21647;-68
2021/11/22 11:59:38;;;;;;;4.20;2.00;;;;;;;7.27;54.26;99344.91;1671295;86;21051;-67
2021/11/22 12:02:23;;;;;;;6.78;2.20;;;;;;;7.30;54.31;99360.63;1671225;86;21042;-68
2021/11/22 12:04:57;;;;;;;2.77;1.27;;;;;;;7.25;54.05;99357.38;1671284;85;21080;-69
2021/11/22 12:07:42;;;;;;;1.45;0.85;;;;;;;7.15;54.28;99352.41;1671184;86;21035;-69
2021/11/22 12:10:25;;;;;;;1.62;0.75;;;;;;;7.07;54.33;99350.99;1671081;85;21094;-69
2021/11/22 12:13:06;;;;;;;4.12;1.40;;;;;;;7.00;54.36;99352.56;1670995;85;21103;-67
2021/11/22 12:15:41;;;;;;;2.72;1.35;;;;;;;6.96;54.70;99358.21;1671137;86;21122;-67
2021/11/22 12:18:25;;;;;;;5.00;2.02;;;;;;;6.96;54.83;99360.91;1670984;85;21058;-67
2021/11/22 12:20:56;;;;;;;3.87;1.92;;;;;;;6.95;55.04;99367.92;1670912;85;21566;-67
2021/11/22 12:23:28;;;;;;;4.78;2.60;;;;;;;6.98;54.95;99368.23;1670802;86;20978;-67